Time;durP1;ratioP1;P1;durP2;ratioP2;P2;SDS_P1;SDS_P2;PMS_P1;PMS_P2;Temp;Humidity;BMP_temperature;BMP_pressure;BME280_temperature;BME280_humidity;BME280_pressure;Samples;Min_cycle;Max_cycle;Signal;HPM_P1;HPM_P2
2023/03/08 00:00:35;;;;;;;12.63;8.40;;;;;;;;;;5034267;28;20033;-69
2023/03/08 00:03:01;;;;;;;12.48;8.07;;;;;;;;;;5034123;28;20424;-69
2023/03/08 00:05:28;;;;;;;12.70;7.35;;;;;;;;;;5033924;28;20036;-69
2023/03/08 00:07:54;;;;;;;13.02;7.85;;;;;;;;;;5033784;28;20017;-69
2023/03/08 00:10:21;;;;;;;14.05;8.43;;;;;;;;;;5034149;28;20055;-69
2023/03/08 00:12:47;;;;;;;15.35;10.18;;;;;;;;;;5033992;28;20021;-69
2023/03/08 00:15:14;;;;;;;15.55;9.95;;;;;;;;;;5033758;28;20034;-69
2023/03/08 00:17:40;;;;;;;18.25;11.70;;;;;;;;;;5033921;28;20029;-69
2023/03/08 00:20:09;;;;;;;18.02;10.88;;;;;;;;;;5033884;28;20032;-69
2023/03/08 00:22:36;;;;;;;17.13;11.30;;;;;;;;;;5033743;28;20031;-69
2023/03/08 00:25:02;;;;;;;17.80;11.05;;;;;;;;;;5033706;28;20029;-69
2023/03/08 00:27:29;;;;;;;18.20;11.32;;;;;;;;;;5033518;28;20021;-69
2023/03/08 00:29:55;;;;;;;20.50;11.30;;;;;;;;;;5033653;28;20029;-69
2023/03/08 00:32:21;;;;;;;20.63;12.15;;;;;;;;;;5033652;28;20040;-69
2023/03/08 00:34:48;;;;;;;19.52;11.65;;;;;;;;;;5032135;28;20421;-69
2023/03/08 00:37:14;;;;;;;20.85;12.35;;;;;;;;;;5033636;28;20024;-69
2023/03/08 00:39:40;;;;;;;19.00;11.48;;;;;;;;;;5033218;28;20024;-70
2023/03/08 00:42:06;;;;;;;18.83;11.10;;;;;;;;;;5033328;28;20088;-69
2023/03/08 00:44:33;;;;;;;17.65;11.55;;;;;;;;;;5033331;28;20106;-69
2023/03/08 00:46:59;;;;;;;19.75;11.90;;;;;;;;;;5033285;28;20028;-69
2023/03/08 00:49:25;;;;;;;19.95;12.85;;;;;;;;;;5033069;28;20022;-69
2023/03/08 00:51:52;;;;;;;17.98;11.40;;;;;;;;;;5032967;28;20036;-70
2023/03/08 00:54:18;;;;;;;15.88;10.77;;;;;;;;;;5033208;28;20397;-69
2023/03/08 00:56:44;;;;;;;15.20;10.60;;;;;;;;;;5033004;28;20047;-69
2023/03/08 00:59:11;;;;;;;12.93;8.43;;;;;;;;;;5033281;28;20028;-69
2023/03/08 01:01:37;;;;;;;12.02;8.05;;;;;;;;;;5033416;28;20025;-69
2023/03/08 01:04:03;;;;;;;14.07;8.43;;;;;;;;;;5033142;28;20065;-69
2023/03/08 01:06:30;;;;;;;13.43;7.53;;;;;;;;;;5032738;28;20029;-69
2023/03/08 01:08:56;;;;;;;12.18;7.95;;;;;;;;;;5032932;28;20082;-69
2023/03/08 01:11:24;;;;;;;12.40;7.28;;;;;;;;;;5033173;28;20086;-70
2023/03/08 01:13:50;;;;;;;10.68;7.35;;;;;;;;;;5032981;28;20021;-69
2023/03/08 01:16:19;;;;;;;11.10;6.93;;;;;;;;;;5032728;28;20036;-69
2023/03/08 01:18:45;;;;;;;11.10;7.35;;;;;;;;;;5032607;28;20028;-69
2023/03/08 01:21:11;;;;;;;11.82;7.70;;;;;;;;;;5032325;28;20368;-69
2023/03/08 01:23:38;;;;;;;11.60;7.85;;;;;;;;;;5032702;28;20520;-69
2023/03/08 01:26:06;;;;;;;13.40;8.23;;;;;;;;;;5032537;28;20033;-69
2023/03/08 01:28:32;;;;;;;10.77;6.88;;;;;;;;;;5032501;28;20032;-69
2023/03/08 01:31:03;;;;;;;10.18;7.20;;;;;;;;;;5031375;28;20041;-69
2023/03/08 01:33:29;;;;;;;11.40;7.45;;;;;;;;;;5032052;28;20044;-69
2023/03/08 01:35:56;;;;;;;11.38;7.35;;;;;;;;;;5032546;28;20042;-69
2023/03/08 01:38:22;;;;;;;10.23;7.00;;;;;;;;;;5031475;28;20014;-69
2023/03/08 01:40:49;;;;;;;11.25;7.10;;;;;;;;;;5032269;28;20436;-69
2023/03/08 01:43:25;;;;;;;11.75;7.00;;;;;;;;;;5032205;28;20042;-69
2023/03/08 01:46:15;;;;;;;12.02;7.00;;;;;;;;;;5032271;28;20047;-69
2023/03/08 01:48:52;;;;;;;14.35;8.13;;;;;;;;;;5058928;28;20043;-70
2023/03/08 01:51:22;;;;;;;11.65;7.65;;;;;;;;;;5032573;28;20030;-69
2023/03/08 01:53:48;;;;;;;10.82;7.15;;;;;;;;;;5032097;28;20482;-69
2023/03/08 01:56:17;;;;;;;10.95;7.00;;;;;;;;;;5032121;28;20041;-69
2023/03/08 01:58:44;;;;;;;9.55;6.32;;;;;;;;;;5032077;28;20067;-69
2023/03/08 02:01:10;;;;;;;9.23;6.50;;;;;;;;;;5032231;28;20029;-69
2023/03/08 02:03:37;;;;;;;9.60;6.13;;;;;;;;;;5031701;28;20023;-69
2023/03/08 02:06:03;;;;;;;11.15;6.90;;;;;;;;;;5032051;28;20493;-69
2023/03/08 02:08:31;;;;;;;11.50;6.82;;;;;;;;;;5032025;28;20021;-69
2023/03/08 02:10:57;;;;;;;8.90;6.70;;;;;;;;;;5032676;28;20026;-68
2023/03/08 02:13:24;;;;;;;12.27;7.15;;;;;;;;;;5032182;28;20144;-69
2023/03/08 02:15:53;;;;;;;10.30;7.32;;;;;;;;;;5031968;28;20091;-69
2023/03/08 02:18:20;;;;;;;9.10;6.85;;;;;;;;;;5031460;28;20040;-69
2023/03/08 02:20:46;;;;;;;10.52;6.38;;;;;;;;;;5031933;28;20479;-69
2023/03/08 02:23:19;;;;;;;10.85;6.97;;;;;;;;;;5032191;28;20026;-69
2023/03/08 02:25:56;;;;;;;10.30;6.90;;;;;;;;;;5031880;28;20021;-69
2023/03/08 02:28:24;;;;;;;11.35;6.57;;;;;;;;;;5031897;28;20402;-69
2023/03/08 02:30:50;;;;;;;9.60;6.40;;;;;;;;;;5032172;28;20025;-69
2023/03/08 02:33:17;;;;;;;11.73;6.80;;;;;;;;;;5031758;28;20037;-69
2023/03/08 02:35:43;;;;;;;10.77;7.13;;;;;;;;;;5030954;28;20033;-70
2023/03/08 02:38:11;;;;;;;10.88;7.68;;;;;;;;;;5031400;28;20444;-69
2023/03/08 02:40:38;;;;;;;10.68;7.22;;;;;;;;;;5031091;28;20034;-69
2023/03/08 02:43:04;;;;;;;11.18;7.43;;;;;;;;;;5031489;28;20041;-69
2023/03/08 02:45:32;;;;;;;9.40;6.93;;;;;;;;;;5031579;28;20482;-69
2023/03/08 02:48:00;;;;;;;10.52;7.20;;;;;;;;;;5031415;28;20471;-69
2023/03/08 02:50:26;;;;;;;10.73;7.75;;;;;;;;;;5034075;28;20025;-69
2023/03/08 02:52:52;;;;;;;9.75;6.97;;;;;;;;;;5035684;28;20044;-69
2023/03/08 02:55:19;;;;;;;11.18;7.65;;;;;;;;;;5035635;28;20051;-69
2023/03/08 02:57:45;;;;;;;12.18;7.70;;;;;;;;;;5035248;28;20482;-69
2023/03/08 03:00:13;;;;;;;11.32;7.60;;;;;;;;;;5035410;28;20029;-69
2023/03/08 03:02:39;;;;;;;12.63;8.02;;;;;;;;;;5035052;28;20032;-69
2023/03/08 03:05:07;;;;;;;11.75;7.60;;;;;;;;;;5035218;28;20037;-69
2023/03/08 03:07:36;;;;;;;12.05;7.30;;;;;;;;;;5035417;28;20036;-69
2023/03/08 03:10:04;;;;;;;9.82;6.53;;;;;;;;;;5035387;28;20179;-69
2023/03/08 03:12:30;;;;;;;10.15;6.63;;;;;;;;;;5035457;28;20021;-69
2023/03/08 03:14:56;;;;;;;11.98;7.15;;;;;;;;;;5034744;28;20025;-68
2023/03/08 03:17:23;;;;;;;12.68;7.55;;;;;;;;;;5035040;28;20032;-69
2023/03/08 03:19:49;;;;;;;13.52;8.45;;;;;;;;;;5034949;28;20017;-69
2023/03/08 03:22:15;;;;;;;12.10;7.68;;;;;;;;;;5034816;28;20028;-69
2023/03/08 03:24:42;;;;;;;11.05;7.57;;;;;;;;;;5034991;28;20025;-69
2023/03/08 03:27:08;;;;;;;9.68;6.78;;;;;;;;;;5034991;28;20459;-69
2023/03/08 03:29:36;;;;;;;11.02;7.50;;;;;;;;;;5034337;28;20025;-69
2023/03/08 03:32:02;;;;;;;13.68;7.72;;;;;;;;;;5034726;28;20413;-69
2023/03/08 03:34:29;;;;;;;12.50;7.47;;;;;;;;;;5035133;28;20025;-69
2023/03/08 03:36:55;;;;;;;9.73;7.05;;;;;;;;;;5034533;28;20032;-69
2023/03/08 03:39:22;;;;;;;12.00;7.90;;;;;;;;;;5034608;28;20028;-69
2023/03/08 03:41:48;;;;;;;11.02;7.70;;;;;;;;;;5035091;28;20028;-69
2023/03/08 03:44:14;;;;;;;12.32;7.78;;;;;;;;;;5033790;28;20059;-69
2023/03/08 03:46:40;;;;;;;12.23;7.65;;;;;;;;;;5034660;28;20508;-69
2023/03/08 03:49:07;;;;;;;14.05;8.32;;;;;;;;;;5034386;28;20025;-69
2023/03/08 03:51:33;;;;;;;13.48;8.70;;;;;;;;;;5033568;28;20029;-69
2023/03/08 03:53:59;;;;;;;11.63;8.07;;;;;;;;;;5034361;28;20022;-69
2023/03/08 03:56:27;;;;;;;13.68;8.80;;;;;;;;;;5034217;28;20041;-69
2023/03/08 03:58:56;;;;;;;11.73;8.18;;;;;;;;;;5034068;28;20021;-69
2023/03/08 04:01:24;;;;;;;15.05;8.55;;;;;;;;;;5033488;28;20027;-69
2023/03/08 04:03:51;;;;;;;11.55;7.90;;;;;;;;;;5034261;28;20029;-69
2023/03/08 04:06:19;;;;;;;10.43;7.45;;;;;;;;;;5034041;28;20501;-69
2023/03/08 04:08:45;;;;;;;11.35;7.75;;;;;;;;;;5033998;28;20402;-69
2023/03/08 04:11:13;;;;;;;13.10;8.55;;;;;;;;;;5034426;28;20033;-69
2023/03/08 04:13:40;;;;;;;14.13;8.38;;;;;;;;;;5033643;28;20013;-69
2023/03/08 04:16:13;;;;;;;10.93;6.88;;;;;;;;;;5033773;28;20033;-69
2023/03/08 04:18:40;;;;;;;14.80;8.30;;;;;;;;;;5033939;28;20023;-69
2023/03/08 04:21:07;;;;;;;10.68;7.78;;;;;;;;;;5034336;28;20037;-69
2023/03/08 04:23:33;;;;;;;11.05;7.38;;;;;;;;;;5033871;28;20017;-69
2023/03/08 04:26:00;;;;;;;12.20;7.40;;;;;;;;;;5033913;28;20030;-69
2023/03/08 04:28:26;;;;;;;12.00;7.35;;;;;;;;;;5032135;28;20028;-69
2023/03/08 04:30:53;;;;;;;11.57;7.85;;;;;;;;;;5033558;28;20226;-69
2023/03/08 04:33:19;;;;;;;11.35;7.60;;;;;;;;;;5033740;28;20044;-69
2023/03/08 04:35:45;;;;;;;10.00;7.55;;;;;;;;;;5033432;28;20405;-69
2023/03/08 04:38:12;;;;;;;10.80;7.38;;;;;;;;;;5033598;28;20014;-69
2023/03/08 04:43:24;;;;;;;11.20;7.25;;;;;;;;;;5064895;28;20037;-69
2023/03/08 04:45:50;;;;;;;10.02;7.10;;;;;;;;;;5033324;28;20397;-69
2023/03/08 04:48:17;;;;;;;10.57;7.35;;;;;;;;;;5033867;28;20030;-69
2023/03/08 04:50:43;;;;;;;11.07;7.95;;;;;;;;;;5033325;28;20024;-69
2023/03/08 04:53:09;;;;;;;10.10;7.50;;;;;;;;;;5033328;28;20040;-69
2023/03/08 04:55:36;;;;;;;9.90;6.97;;;;;;;;;;5033120;28;20163;-69
2023/03/08 04:58:02;;;;;;;11.13;7.20;;;;;;;;;;5032709;28;20036;-68
2023/03/08 05:00:29;;;;;;;12.00;7.97;;;;;;;;;;5032277;28;20040;-68
2023/03/08 05:02:55;;;;;;;12.27;8.27;;;;;;;;;;5033072;28;20025;-69
2023/03/08 05:05:22;;;;;;;10.20;7.00;;;;;;;;;;5031651;28;20467;-69
2023/03/08 05:07:49;;;;;;;12.15;7.75;;;;;;;;;;5033031;28;20028;-69
2023/03/08 05:10:15;;;;;;;10.55;7.70;;;;;;;;;;5032819;28;20385;-69
2023/03/08 05:12:41;;;;;;;12.32;8.70;;;;;;;;;;5031914;28;20013;-69
2023/03/08 05:15:08;;;;;;;11.10;7.85;;;;;;;;;;5032496;28;20029;-69
2023/03/08 05:17:34;;;;;;;10.63;7.53;;;;;;;;;;5032580;28;20022;-69
2023/03/08 05:20:01;;;;;;;11.35;8.40;;;;;;;;;;5032699;28;20379;-69
2023/03/08 05:22:27;;;;;;;13.52;8.80;;;;;;;;;;5032715;28;20047;-69
2023/03/08 05:24:53;;;;;;;11.05;7.70;;;;;;;;;;5032558;28;20025;-69
2023/03/08 05:27:19;;;;;;;11.75;7.97;;;;;;;;;;5032300;28;20375;-69
2023/03/08 05:29:46;;;;;;;12.23;8.35;;;;;;;;;;5032454;28;20397;-69
2023/03/08 05:32:12;;;;;;;14.45;9.10;;;;;;;;;;5032859;28;20067;-69
2023/03/08 05:34:38;;;;;;;10.02;8.23;;;;;;;;;;5032977;28;20025;-69
2023/03/08 05:37:05;;;;;;;12.18;7.90;;;;;;;;;;5032206;28;20049;-69
2023/03/08 05:39:31;;;;;;;13.45;8.00;;;;;;;;;;5032188;28;20021;-69
2023/03/08 05:41:57;;;;;;;12.80;8.40;;;;;;;;;;5031992;28;20033;-69
2023/03/08 05:44:24;;;;;;;14.65;8.07;;;;;;;;;;5032193;28;20395;-69
2023/03/08 05:46:50;;;;;;;12.63;8.05;;;;;;;;;;5032494;28;20074;-69
2023/03/08 05:49:17;;;;;;;13.30;8.25;;;;;;;;;;5032479;28;20037;-69
2023/03/08 05:51:43;;;;;;;12.43;8.05;;;;;;;;;;5032228;28;20028;-69
2023/03/08 05:54:09;;;;;;;11.40;8.32;;;;;;;;;;5032220;28;20055;-69
2023/03/08 05:56:36;;;;;;;13.07;8.20;;;;;;;;;;5031800;28;20043;-69
2023/03/08 05:59:02;;;;;;;10.55;7.97;;;;;;;;;;5032171;28;20436;-69
2023/03/08 06:01:28;;;;;;;16.88;9.27;;;;;;;;;;5032044;28;20037;-69
2023/03/08 06:03:57;;;;;;;12.38;8.63;;;;;;;;;;5032194;28;20017;-69
2023/03/08 06:06:25;;;;;;;13.35;8.82;;;;;;;;;;5032170;28;20383;-69
2023/03/08 06:08:52;;;;;;;11.98;8.50;;;;;;;;;;5032360;28;20018;-69
2023/03/08 06:11:19;;;;;;;12.38;8.05;;;;;;;;;;5032197;28;20028;-69
2023/03/08 06:13:45;;;;;;;13.02;8.55;;;;;;;;;;5032009;28;20059;-69
2023/03/08 06:16:12;;;;;;;13.43;8.70;;;;;;;;;;5032111;28;20030;-69
2023/03/08 06:18:39;;;;;;;12.07;7.85;;;;;;;;;;5032473;28;20026;-69
2023/03/08 06:21:06;;;;;;;16.08;8.70;;;;;;;;;;5032357;28;20026;-69
2023/03/08 06:23:33;;;;;;;16.45;9.88;;;;;;;;;;5031680;28;20475;-69
2023/03/08 06:26:00;;;;;;;11.95;8.07;;;;;;;;;;5035351;28;20033;-69
2023/03/08 06:28:27;;;;;;;13.00;8.73;;;;;;;;;;5036167;28;20021;-69
2023/03/08 06:30:53;;;;;;;13.07;9.02;;;;;;;;;;5034889;28;20036;-69
2023/03/08 06:33:21;;;;;;;11.27;7.88;;;;;;;;;;5036015;28;20013;-69
2023/03/08 06:35:57;;;;;;;12.35;7.90;;;;;;;;;;5035706;28;20029;-69
2023/03/08 06:38:23;;;;;;;13.10;9.25;;;;;;;;;;5035448;28;20037;-69
2023/03/08 06:40:49;;;;;;;10.50;8.48;;;;;;;;;;5035692;28;20030;-69
2023/03/08 06:43:16;;;;;;;12.23;8.82;;;;;;;;;;5035664;28;20053;-69
2023/03/08 06:45:42;;;;;;;12.73;8.95;;;;;;;;;;5035737;28;20033;-69
2023/03/08 06:48:08;;;;;;;11.10;8.02;;;;;;;;;;5036059;28;20474;-69
2023/03/08 06:50:35;;;;;;;11.77;8.45;;;;;;;;;;5035654;28;20024;-69
2023/03/08 06:53:01;;;;;;;12.60;8.77;;;;;;;;;;5035203;28;20037;-69
2023/03/08 06:55:27;;;;;;;18.52;9.15;;;;;;;;;;5035522;28;20033;-69
2023/03/08 06:57:56;;;;;;;13.88;9.70;;;;;;;;;;5035569;28;20025;-69
2023/03/08 07:00:23;;;;;;;14.68;9.68;;;;;;;;;;5035317;28;20025;-69
2023/03/08 07:02:50;;;;;;;15.02;10.20;;;;;;;;;;5035254;28;20035;-69
2023/03/08 07:05:16;;;;;;;15.23;9.85;;;;;;;;;;5035892;28;20025;-69
2023/03/08 07:07:42;;;;;;;14.35;8.27;;;;;;;;;;5034937;28;20033;-69
2023/03/08 07:10:15;;;;;;;13.05;9.65;;;;;;;;;;5035477;28;20017;-69
2023/03/08 07:12:42;;;;;;;11.25;8.60;;;;;;;;;;5034714;28;20034;-69
2023/03/08 07:15:17;;;;;;;13.90;8.55;;;;;;;;;;5034789;28;20478;-69
2023/03/08 07:17:44;;;;;;;14.77;8.80;;;;;;;;;;5035448;28;20048;-69
2023/03/08 07:20:12;;;;;;;11.90;9.13;;;;;;;;;;5031284;28;20028;-68
2023/03/08 07:22:40;;;;;;;14.30;8.25;;;;;;;;;;5034674;28;20026;-68
2023/03/08 07:25:08;;;;;;;13.40;9.35;;;;;;;;;;5034362;28;20033;-67
2023/03/08 07:27:34;;;;;;;11.88;8.13;;;;;;;;;;5026061;28;20029;-68
2023/03/08 07:30:00;;;;;;;11.40;7.93;;;;;;;;;;5034055;28;20383;-68
2023/03/08 07:32:27;;;;;;;10.85;8.07;;;;;;;;;;5033801;28;20025;-68
2023/03/08 07:34:57;;;;;;;15.40;8.38;;;;;;;;;;5031680;28;20030;-68
2023/03/08 07:37:23;;;;;;;13.07;8.65;;;;;;;;;;5032575;28;20034;-68
2023/03/08 07:39:50;;;;;;;10.98;7.30;;;;;;;;;;5033938;28;20021;-68
2023/03/08 07:42:17;;;;;;;13.27;8.25;;;;;;;;;;5033353;28;20409;-68
2023/03/08 07:44:43;;;;;;;11.88;8.07;;;;;;;;;;5032419;28;20417;-68
2023/03/08 07:47:09;;;;;;;12.07;7.70;;;;;;;;;;5033385;28;20485;-68
2023/03/08 07:49:36;;;;;;;11.25;7.97;;;;;;;;;;5033673;28;20025;-68
2023/03/08 07:52:02;;;;;;;10.65;8.05;;;;;;;;;;5033251;28;20036;-66
2023/03/08 07:54:28;;;;;;;11.57;8.00;;;;;;;;;;5033214;28;20029;-68
2023/03/08 07:56:55;;;;;;;12.57;8.52;;;;;;;;;;5032024;28;20021;-67
2023/03/08 07:59:22;;;;;;;14.90;10.30;;;;;;;;;;5031045;28;20029;-67
2023/03/08 08:01:48;;;;;;;11.07;7.05;;;;;;;;;;5032483;28;20025;-68
2023/03/08 08:04:15;;;;;;;9.75;6.78;;;;;;;;;;5033219;28;20021;-68
2023/03/08 08:06:41;;;;;;;10.00;7.25;;;;;;;;;;5032218;28;20037;-68
2023/03/08 08:09:09;;;;;;;10.15;7.05;;;;;;;;;;5032776;28;20669;-68
2023/03/08 08:11:36;;;;;;;10.82;7.28;;;;;;;;;;5032842;28;20040;-68
2023/03/08 08:14:03;;;;;;;13.18;8.07;;;;;;;;;;5032572;28;20018;-67
2023/03/08 08:16:29;;;;;;;18.13;7.35;;;;;;;;;;5024667;28;20048;-68
2023/03/08 08:18:56;;;;;;;11.77;6.90;;;;;;;;;;5032683;28;20018;-68
2023/03/08 08:21:22;;;;;;;10.30;7.45;;;;;;;;;;5030000;28;20408;-68
2023/03/08 08:23:48;;;;;;;9.77;6.22;;;;;;;;;;5031653;28;20033;-68
2023/03/08 08:26:16;;;;;;;12.35;7.32;;;;;;;;;;5032137;28;20490;-68
2023/03/08 08:28:43;;;;;;;8.88;6.22;;;;;;;;;;5032458;28;20014;-68
2023/03/08 08:31:11;;;;;;;8.18;6.47;;;;;;;;;;5032253;28;20074;-67
2023/03/08 08:33:38;;;;;;;10.68;6.60;;;;;;;;;;5031600;28;20486;-68
2023/03/08 08:36:06;;;;;;;8.27;6.18;;;;;;;;;;5031869;28;20048;-68
2023/03/08 08:38:32;;;;;;;6.95;5.35;;;;;;;;;;5031448;28;20041;-68
2023/03/08 08:41:03;;;;;;;7.28;5.50;;;;;;;;;;5031371;28;20029;-68
2023/03/08 08:43:29;;;;;;;8.63;6.13;;;;;;;;;;5031858;28;20087;-68
2023/03/08 08:45:57;;;;;;;8.73;6.05;;;;;;;;;;5032315;28;20030;-68
2023/03/08 08:48:24;;;;;;;9.93;6.50;;;;;;;;;;5030970;28;20030;-68
2023/03/08 08:50:51;;;;;;;8.40;6.43;;;;;;;;;;5032191;28;20562;-68
2023/03/08 08:53:17;;;;;;;7.47;6.07;;;;;;;;;;5032540;28;20022;-68
2023/03/08 08:55:45;;;;;;;10.75;6.35;;;;;;;;;;5031632;28;20057;-68
2023/03/08 08:58:11;;;;;;;6.20;4.93;;;;;;;;;;5031143;28;20378;-68
2023/03/08 09:00:38;;;;;;;6.63;5.28;;;;;;;;;;5031549;28;20394;-68
2023/03/08 09:03:04;;;;;;;5.70;4.60;;;;;;;;;;5030314;28;20029;-68
2023/03/08 09:05:31;;;;;;;6.30;4.43;;;;;;;;;;5033012;28;20040;-68
2023/03/08 09:07:58;;;;;;;5.82;4.63;;;;;;;;;;5031936;28;20106;-68
2023/03/08 09:10:26;;;;;;;6.00;4.93;;;;;;;;;;5031217;28;20026;-68
2023/03/08 09:12:52;;;;;;;5.53;4.28;;;;;;;;;;5031510;28;20028;-67
2023/03/08 09:15:20;;;;;;;8.57;5.45;;;;;;;;;;5030169;28;20478;-67
2023/03/08 09:17:47;;;;;;;5.28;4.65;;;;;;;;;;5030580;28;20025;-67
2023/03/08 09:20:14;;;;;;;5.95;4.63;;;;;;;;;;5031640;28;20018;-67
2023/03/08 09:22:40;;;;;;;7.40;5.80;;;;;;;;;;5029537;28;20079;-69
2023/03/08 09:25:07;;;;;;;10.32;6.05;;;;;;;;;;5030912;28;20022;-69
2023/03/08 09:27:34;;;;;;;13.98;9.55;;;;;;;;;;5031101;28;20043;-68
2023/03/08 09:30:00;;;;;;;5.55;3.83;;;;;;;;;;5031641;28;20032;-68
2023/03/08 09:32:27;;;;;;;4.85;3.47;;;;;;;;;;5028733;28;20487;-68
2023/03/08 09:34:53;;;;;;;5.18;3.50;;;;;;;;;;5030977;28;20025;-68
2023/03/08 09:37:19;;;;;;;5.00;3.35;;;;;;;;;;5029929;28;20037;-68
2023/03/08 09:39:46;;;;;;;3.58;3.10;;;;;;;;;;5029999;28;20596;-68
2023/03/08 09:42:19;;;;;;;3.85;3.28;;;;;;;;;;5029870;28;20024;-68
2023/03/08 09:44:58;;;;;;;3.42;2.80;;;;;;;;;;5030258;28;20037;-68
2023/03/08 09:47:28;;;;;;;4.75;3.35;;;;;;;;;;5030138;28;20424;-68
2023/03/08 09:49:55;;;;;;;9.70;6.53;;;;;;;;;;5029970;28;20028;-68
2023/03/08 09:52:21;;;;;;;6.50;3.97;;;;;;;;;;5030106;28;20031;-68
2023/03/08 09:54:49;;;;;;;6.60;4.63;;;;;;;;;;5029792;28;20509;-68
2023/03/08 09:57:26;;;;;;;5.13;4.03;;;;;;;;;;5030418;28;20043;-68
2023/03/08 09:59:54;;;;;;;5.22;4.47;;;;;;;;;;5030117;28;20032;-68
2023/03/08 10:02:29;;;;;;;4.32;3.20;;;;;;;;;;5028449;28;20029;-68
2023/03/08 10:05:14;;;;;;;5.40;3.88;;;;;;;;;;5030946;28;20032;-69
2023/03/08 10:08:00;;;;;;;7.53;5.85;;;;;;;;;;5030835;28;20067;-68
2023/03/08 10:10:39;;;;;;;5.00;3.45;;;;;;;;;;5030919;28;20367;-67
2023/03/08 10:13:05;;;;;;;3.58;3.20;;;;;;;;;;5027277;28;20063;-68
2023/03/08 10:15:33;;;;;;;3.55;2.97;;;;;;;;;;5030590;28;20021;-69
2023/03/08 10:18:13;;;;;;;3.95;3.30;;;;;;;;;;5030472;28;20037;-68
2023/03/08 10:20:40;;;;;;;4.90;3.30;;;;;;;;;;5030539;28;20020;-68
2023/03/08 10:23:12;;;;;;;5.28;4.07;;;;;;;;;;5030270;28;20079;-67
2023/03/08 10:25:38;;;;;;;5.57;3.83;;;;;;;;;;5027956;28;20029;-68
2023/03/08 10:28:11;;;;;;;3.63;3.10;;;;;;;;;;5030075;28;20021;-69
2023/03/08 10:30:40;;;;;;;4.10;3.00;;;;;;;;;;5029937;28;20037;-68
2023/03/08 10:33:09;;;;;;;3.58;3.03;;;;;;;;;;5029798;28;20867;-69
2023/03/08 10:35:36;;;;;;;5.07;3.35;;;;;;;;;;5030537;28;20030;-68
2023/03/08 10:38:03;;;;;;;4.07;3.67;;;;;;;;;;5030605;28;20029;-69
2023/03/08 10:40:30;;;;;;;9.10;7.05;;;;;;;;;;5028650;28;20030;-68
2023/03/08 10:43:00;;;;;;;6.20;4.80;;;;;;;;;;5027680;28;20045;-68
2023/03/08 10:45:28;;;;;;;7.35;5.05;;;;;;;;;;5037228;28;20017;-68
2023/03/08 10:47:55;;;;;;;12.13;5.43;;;;;;;;;;5030153;28;20367;-68
2023/03/08 10:50:23;;;;;;;7.60;4.80;;;;;;;;;;5029710;28;20502;-68
2023/03/08 10:52:50;;;;;;;8.10;4.90;;;;;;;;;;5028991;28;20037;-68
2023/03/08 10:55:18;;;;;;;6.22;5.00;;;;;;;;;;5030781;28;20041;-69
2023/03/08 10:57:50;;;;;;;6.88;5.38;;;;;;;;;;5030582;28;20032;-68
2023/03/08 11:00:20;;;;;;;7.22;5.18;;;;;;;;;;5030171;28;20405;-68
2023/03/08 11:02:49;;;;;;;8.40;5.30;;;;;;;;;;5029970;28;20044;-69
2023/03/08 11:05:25;;;;;;;9.05;5.47;;;;;;;;;;5029035;28;20051;-68
2023/03/08 11:07:53;;;;;;;6.78;5.47;;;;;;;;;;5030952;28;20042;-68
2023/03/08 11:10:24;;;;;;;7.78;5.20;;;;;;;;;;5031464;28;20038;-67
2023/03/08 11:13:01;;;;;;;8.35;4.97;;;;;;;;;;5033983;28;20494;-68
2023/03/08 11:15:28;;;;;;;8.70;5.40;;;;;;;;;;5034017;28;20505;-68
2023/03/08 11:17:57;;;;;;;10.57;4.45;;;;;;;;;;5034695;28;20029;-68
2023/03/08 11:20:25;;;;;;;6.53;5.63;;;;;;;;;;5034745;28;20520;-68
2023/03/08 11:23:10;;;;;;;13.65;7.03;;;;;;;;;;5034609;28;20504;-68
2023/03/08 11:25:45;;;;;;;9.98;5.13;;;;;;;;;;5034941;28;20032;-68
2023/03/08 11:28:11;;;;;;;8.95;4.85;;;;;;;;;;5034420;28;20371;-68
2023/03/08 11:30:56;;;;;;;14.15;6.10;;;;;;;;;;5034671;28;20017;-68
2023/03/08 11:33:48;;;;;;;11.55;4.60;;;;;;;;;;5034935;28;20027;-68
2023/03/08 11:36:24;;;;;;;9.77;3.85;;;;;;;;;;5034139;28;20049;-68
2023/03/08 11:39:22;;;;;;;9.23;4.32;;;;;;;;;;5034475;28;20021;-68
2023/03/08 11:41:53;;;;;;;6.65;4.03;;;;;;;;;;5012525;28;20041;-68
2023/03/08 11:44:23;;;;;;;8.27;4.55;;;;;;;;;;5008742;28;20049;-68
2023/03/08 11:46:49;;;;;;;14.70;4.03;;;;;;;;;;5011886;28;20034;-68
2023/03/08 11:49:18;;;;;;;12.25;4.53;;;;;;;;;;5011954;28;20038;-68
2023/03/08 11:51:53;;;;;;;7.20;3.60;;;;;;;;;;5012010;28;20038;-68
2023/03/08 11:54:35;;;;;;;9.48;4.00;;;;;;;;;;5011819;28;20030;-68
2023/03/08 11:57:02;;;;;;;7.13;4.07;;;;;;;;;;5011468;28;20044;-68
2023/03/08 11:59:28;;;;;;;11.10;5.07;;;;;;;;;;5012038;28;20071;-68
2023/03/08 12:01:55;;;;;;;11.32;5.90;;;;;;;;;;5011833;28;20030;-67
2023/03/08 12:04:26;;;;;;;9.85;6.38;;;;;;;;;;5011801;28;20499;-68
2023/03/08 12:06:55;;;;;;;13.38;6.70;;;;;;;;;;5011673;28;20037;-69
2023/03/08 12:09:37;;;;;;;15.02;6.20;;;;;;;;;;5011866;28;20026;-69
2023/03/08 12:12:10;;;;;;;13.18;6.38;;;;;;;;;;5011512;28;20033;-68
2023/03/08 12:14:56;;;;;;;11.18;5.10;;;;;;;;;;5011465;28;20132;-68
2023/03/08 12:17:25;;;;;;;9.18;5.22;;;;;;;;;;5022150;28;20059;-68
2023/03/08 12:19:52;;;;;;;6.18;4.85;;;;;;;;;;5033873;28;20022;-68
2023/03/08 12:22:32;;;;;;;8.05;4.75;;;;;;;;;;5033266;28;20029;-68
2023/03/08 12:25:12;;;;;;;7.70;4.38;;;;;;;;;;5033527;28;20021;-68
2023/03/08 12:28:00;;;;;;;6.85;4.40;;;;;;;;;;5031287;28;20038;-68
2023/03/08 12:30:38;;;;;;;8.07;4.75;;;;;;;;;;5032897;28;20036;-68
2023/03/08 12:33:06;;;;;;;7.95;4.70;;;;;;;;;;5033480;28;20013;-68
2023/03/08 12:35:33;;;;;;;7.00;4.40;;;;;;;;;;5032944;28;20083;-68
2023/03/08 12:38:04;;;;;;;5.65;3.80;;;;;;;;;;5032903;28;20036;-68
2023/03/08 12:40:31;;;;;;;7.05;4.75;;;;;;;;;;5032517;28;20028;-68
2023/03/08 12:43:04;;;;;;;13.07;6.53;;;;;;;;;;5028435;28;20087;-68
2023/03/08 12:45:30;;;;;;;7.20;4.88;;;;;;;;;;5031889;28;20390;-68
2023/03/08 12:48:06;;;;;;;11.90;5.65;;;;;;;;;;5031328;28;20401;-66
2023/03/08 12:50:35;;;;;;;8.43;4.13;;;;;;;;;;5031982;28;20025;-68
2023/03/08 12:53:02;;;;;;;9.53;4.80;;;;;;;;;;5031983;28;20025;-67
2023/03/08 12:55:32;;;;;;;13.00;6.25;;;;;;;;;;5031652;28;20022;-68
2023/03/08 12:58:01;;;;;;;8.37;4.67;;;;;;;;;;5031797;28;20383;-68
2023/03/08 13:00:35;;;;;;;7.95;4.78;;;;;;;;;;5032098;28;20405;-66
2023/03/08 13:03:03;;;;;;;12.45;7.32;;;;;;;;;;5031994;28;20066;-68
2023/03/08 13:05:36;;;;;;;13.02;5.18;;;;;;;;;;5031365;28;20021;-68
2023/03/08 13:08:12;;;;;;;9.13;4.20;;;;;;;;;;5031856;28;20044;-68
2023/03/08 13:10:40;;;;;;;17.67;9.35;;;;;;;;;;5029696;28;20025;-68
2023/03/08 13:13:09;;;;;;;18.77;10.02;;;;;;;;;;5030720;28;20017;-68
2023/03/08 13:15:36;;;;;;;11.98;5.40;;;;;;;;;;5031574;28;20030;-68
2023/03/08 13:18:10;;;;;;;23.88;9.77;;;;;;;;;;5031183;28;20029;-68
2023/03/08 13:20:40;;;;;;;15.13;5.97;;;;;;;;;;5030823;28;20025;-68
2023/03/08 13:23:15;;;;;;;12.55;6.38;;;;;;;;;;5031009;28;20031;-68
2023/03/08 13:26:00;;;;;;;6.63;3.05;;;;;;;;;;5031194;28;20031;-68
2023/03/08 13:28:31;;;;;;;10.43;5.85;;;;;;;;;;5031805;28;20051;-68
2023/03/08 13:30:58;;;;;;;3.17;2.00;;;;;;;;;;5031199;28;20513;-68
2023/03/08 13:33:26;;;;;;;4.80;2.97;;;;;;;;;;5030921;28;20033;-67
2023/03/08 13:35:59;;;;;;;3.60;2.00;;;;;;;;;;5030071;28;20041;-67
2023/03/08 13:38:27;;;;;;;6.22;2.40;;;;;;;;;;5031172;28;20393;-66
2023/03/08 13:40:55;;;;;;;3.53;2.30;;;;;;;;;;5031456;28;20028;-70
2023/03/08 13:43:22;;;;;;;9.07;5.00;;;;;;;;;;5015276;28;20043;-68
2023/03/08 13:45:51;;;;;;;11.13;4.07;;;;;;;;;;5030551;28;20033;-70
2023/03/08 13:48:18;;;;;;;7.15;2.45;;;;;;;;;;5031552;28;20025;-69
2023/03/08 13:50:49;;;;;;;9.32;2.65;;;;;;;;;;5030914;28;20478;-67
2023/03/08 13:53:18;;;;;;;5.35;2.17;;;;;;;;;;5030455;28;20501;-69
2023/03/08 13:55:45;;;;;;;4.45;2.03;;;;;;;;;;5030714;28;20025;-69
2023/03/08 13:58:25;;;;;;;5.60;2.28;;;;;;;;;;5030786;28;20025;-69
2023/03/08 14:01:10;;;;;;;3.15;1.63;;;;;;;;;;5030904;28;20486;-69
2023/03/08 14:03:36;;;;;;;8.13;2.00;;;;;;;;;;5031226;28;20523;-68
2023/03/08 14:06:02;;;;;;;5.40;2.10;;;;;;;;;;5030664;28;20031;-70
2023/03/08 14:08:29;;;;;;;4.82;1.92;;;;;;;;;;5030802;28;20025;-69
2023/03/08 14:10:55;;;;;;;7.65;2.53;;;;;;;;;;5030755;28;20516;-69
2023/03/08 14:13:27;;;;;;;7.72;4.20;;;;;;;;;;5030824;28;20022;-73
2023/03/08 14:15:55;;;;;;;9.32;3.47;;;;;;;;;;5030958;28;20040;-69
2023/03/08 14:18:23;;;;;;;5.82;2.22;;;;;;;;;;5031416;28;20028;-69
2023/03/08 14:21:00;;;;;;;4.95;1.83;;;;;;;;;;5031397;28;20135;-69
2023/03/08 14:23:26;;;;;;;4.78;1.83;;;;;;;;;;5031046;28;20032;-68
2023/03/08 14:25:56;;;;;;;4.32;2.25;;;;;;;;;;5031257;28;20014;-68
2023/03/08 14:28:39;;;;;;;2.78;1.95;;;;;;;;;;5031308;28;20508;-69
2023/03/08 14:31:24;;;;;;;5.57;2.30;;;;;;;;;;5028794;28;20021;-69
2023/03/08 14:34:01;;;;;;;2.40;1.90;;;;;;;;;;5016454;28;20025;-69
2023/03/08 14:36:28;;;;;;;4.82;1.92;;;;;;;;;;5030714;28;20448;-69
2023/03/08 14:38:55;;;;;;;5.03;2.17;;;;;;;;;;5028784;28;20363;-69
2023/03/08 14:41:35;;;;;;;4.70;1.90;;;;;;;;;;5029852;28;20036;-69
2023/03/08 14:44:02;;;;;;;4.33;1.80;;;;;;;;;;5030819;28;20053;-69